sensor_id;sensor_type;location;lat;lon;timestamp;pressure;altitude;pressure_sealevel;temperature;humidity
5703;BME280;2876;51.738;10.050;2023-02-23T00:03:25;98857.94;;;8.09;100.00
5703;BME280;2876;51.738;10.050;2023-02-23T00:09:27;98859.16;;;8.07;100.00
5703;BME280;2876;51.738;10.050;2023-02-23T00:15:36;98855.63;;;8.00;100.00
5703;BME280;2876;51.738;10.050;2023-02-23T00:21:38;98851.59;;;8.17;100.00
5703;BME280;2876;51.738;10.050;2023-02-23T00:27:40;98857.97;;;8.16;100.00
5703;BME280;2876;51.738;10.050;2023-02-23T00:33:46;98854.59;;;8.01;100.00
5703;BME280;2876;51.738;10.050;2023-02-23T00:39:49;98850.75;;;8.10;100.00
5703;BME280;2876;51.738;10.050;2023-02-23T00:45:54;98860.91;;;7.93;100.00
5703;BME280;2876;51.738;10.050;2023-02-23T00:51:56;98865.84;;;7.96;100.00
5703;BME280;2876;51.738;10.050;2023-02-23T00:57:58;98868.47;;;7.89;100.00
5703;BME280;2876;51.738;10.050;2023-02-23T01:04:00;98868.66;;;7.88;100.00
5703;BME280;2876;51.738;10.050;2023-02-23T01:10:05;98871.19;;;7.96;100.00
5703;BME280;2876;51.738;10.050;2023-02-23T01:16:23;98873.47;;;7.99;100.00
5703;BME280;2876;51.738;10.050;2023-02-23T01:22:30;98873.44;;;7.93;100.00
5703;BME280;2876;51.738;10.050;2023-02-23T01:28:32;98871.56;;;7.93;100.00
5703;BME280;2876;51.738;10.050;2023-02-23T01:34:34;98885.16;;;7.98;100.00
5703;BME280;2876;51.738;10.050;2023-02-23T01:40:36;98880.25;;;7.95;100.00
5703;BME280;2876;51.738;10.050;2023-02-23T01:46:43;98877.06;;;7.85;100.00
5703;BME280;2876;51.738;10.050;2023-02-23T01:52:49;98879.78;;;7.92;100.00
5703;BME280;2876;51.738;10.050;2023-02-23T01:58:55;98874.63;;;7.90;100.00
5703;BME280;2876;51.738;10.050;2023-02-23T02:05:00;98870.75;;;7.93;100.00
5703;BME280;2876;51.738;10.050;2023-02-23T02:11:02;98871.00;;;7.98;100.00
5703;BME280;2876;51.738;10.050;2023-02-23T02:17:36;98872.56;;;8.13;100.00
5703;BME280;2876;51.738;10.050;2023-02-23T02:24:25;98864.72;;;8.12;100.00
5703;BME280;2876;51.738;10.050;2023-02-23T02:37:34;98875.47;;;8.19;100.00
5703;BME280;2876;51.738;10.050;2023-02-23T02:56:54;98869.06;;;8.41;100.00
5703;BME280;2876;51.738;10.050;2023-02-23T03:03:01;98862.94;;;8.54;100.00
5703;BME280;2876;51.738;10.050;2023-02-23T03:24:21;98855.94;;;8.53;100.00
5703;BME280;2876;51.738;10.050;2023-02-23T03:30:58;98863.19;;;8.31;100.00
5703;BME280;2876;51.738;10.050;2023-02-23T03:37:37;98860.50;;;8.24;100.00
5703;BME280;2876;51.738;10.050;2023-02-23T03:44:12;98860.03;;;8.14;100.00
5703;BME280;2876;51.738;10.050;2023-02-23T03:50:41;98861.97;;;7.99;100.00
5703;BME280;2876;51.738;10.050;2023-02-23T03:57:05;98854.34;;;7.96;100.00
5703;BME280;2876;51.738;10.050;2023-02-23T04:03:30;98856.69;;;8.05;100.00
5703;BME280;2876;51.738;10.050;2023-02-23T04:09:53;98857.59;;;8.19;100.00
5703;BME280;2876;51.738;10.050;2023-02-23T04:16:14;98859.03;;;8.22;100.00
5703;BME280;2876;51.738;10.050;2023-02-23T04:22:16;98859.81;;;8.16;100.00
5703;BME280;2876;51.738;10.050;2023-02-23T04:28:22;98857.34;;;8.14;100.00
5703;BME280;2876;51.738;10.050;2023-02-23T04:34:25;98860.94;;;8.28;100.00
5703;BME280;2876;51.738;10.050;2023-02-23T04:40:27;98855.31;;;8.16;100.00
5703;BME280;2876;51.738;10.050;2023-02-23T04:46:29;98862.38;;;8.30;100.00
5703;BME280;2876;51.738;10.050;2023-02-23T04:52:31;98855.72;;;8.13;100.00
5703;BME280;2876;51.738;10.050;2023-02-23T04:58:35;98858.78;;;8.17;100.00
5703;BME280;2876;51.738;10.050;2023-02-23T05:04:37;98857.16;;;8.16;100.00
5703;BME280;2876;51.738;10.050;2023-02-23T05:10:39;98859.03;;;8.22;100.00
5703;BME280;2876;51.738;10.050;2023-02-23T05:16:41;98857.34;;;8.14;100.00
5703;BME280;2876;51.738;10.050;2023-02-23T05:22:43;98866.44;;;8.20;100.00
5703;BME280;2876;51.738;10.050;2023-02-23T05:28:45;98865.47;;;8.27;100.00
5703;BME280;2876;51.738;10.050;2023-02-23T05:34:47;98856.44;;;8.35;100.00
5703;BME280;2876;51.738;10.050;2023-02-23T05:40:49;98857.34;;;8.42;100.00
5703;BME280;2876;51.738;10.050;2023-02-23T05:46:51;98852.78;;;8.36;100.00
5703;BME280;2876;51.738;10.050;2023-02-23T05:52:53;98856.28;;;8.36;100.00
5703;BME280;2876;51.738;10.050;2023-02-23T05:58:56;98861.13;;;8.26;100.00
5703;BME280;2876;51.738;10.050;2023-02-23T06:04:58;98863.06;;;8.39;100.00
5703;BME280;2876;51.738;10.050;2023-02-23T06:11:01;98867.31;;;8.27;100.00
5703;BME280;2876;51.738;10.050;2023-02-23T06:17:03;98873.63;;;8.19;100.00
5703;BME280;2876;51.738;10.050;2023-02-23T06:23:06;98875.03;;;8.15;100.00
5703;BME280;2876;51.738;10.050;2023-02-23T06:29:08;98877.13;;;8.20;100.00
5703;BME280;2876;51.738;10.050;2023-02-23T06:35:12;98881.06;;;8.30;100.00
5703;BME280;2876;51.738;10.050;2023-02-23T06:41:16;98891.09;;;8.22;100.00
5703;BME280;2876;51.738;10.050;2023-02-23T06:47:18;98902.03;;;8.27;100.00
5703;BME280;2876;51.738;10.050;2023-02-23T06:53:20;98897.53;;;8.27;100.00
5703;BME280;2876;51.738;10.050;2023-02-23T06:59:23;98901.72;;;8.36;100.00
5703;BME280;2876;51.738;10.050;2023-02-23T07:05:25;98912.28;;;8.51;100.00
5703;BME280;2876;51.738;10.050;2023-02-23T07:11:28;98908.00;;;8.57;100.00
5703;BME280;2876;51.738;10.050;2023-02-23T07:17:29;98910.13;;;8.68;100.00
5703;BME280;2876;51.738;10.050;2023-02-23T07:23:32;98917.97;;;8.76;100.00
5703;BME280;2876;51.738;10.050;2023-02-23T07:29:34;98928.56;;;8.98;100.00
5703;BME280;2876;51.738;10.050;2023-02-23T07:35:36;98932.88;;;8.99;100.00
5703;BME280;2876;51.738;10.050;2023-02-23T07:41:38;98930.25;;;9.05;100.00
5703;BME280;2876;51.738;10.050;2023-02-23T07:47:40;98937.09;;;9.21;100.00
5703;BME280;2876;51.738;10.050;2023-02-23T07:53:43;98940.19;;;9.25;100.00
5703;BME280;2876;51.738;10.050;2023-02-23T07:59:47;98940.25;;;9.38;100.00
5703;BME280;2876;51.738;10.050;2023-02-23T08:05:49;98943.97;;;9.50;100.00
5703;BME280;2876;51.738;10.050;2023-02-23T08:11:50;98945.44;;;9.59;100.00
5703;BME280;2876;51.738;10.050;2023-02-23T08:17:52;98956.19;;;9.73;99.70
5703;BME280;2876;51.738;10.050;2023-02-23T08:23:56;98961.72;;;9.64;99.79
5703;BME280;2876;51.738;10.050;2023-02-23T08:29:58;98962.53;;;9.72;99.42
5703;BME280;2876;51.738;10.050;2023-02-23T08:36:01;98955.78;;;9.82;99.44
5703;BME280;2876;51.738;10.050;2023-02-23T08:42:03;98963.63;;;9.90;98.30
5703;BME280;2876;51.738;10.050;2023-02-23T08:48:07;98967.94;;;9.78;98.62
5703;BME280;2876;51.738;10.050;2023-02-23T08:54:09;98967.31;;;9.83;99.10
5703;BME280;2876;51.738;10.050;2023-02-23T09:00:15;98970.81;;;9.83;98.52
5703;BME280;2876;51.738;10.050;2023-02-23T09:06:22;98974.09;;;9.85;98.59
5703;BME280;2876;51.738;10.050;2023-02-23T09:12:24;98972.69;;;9.89;98.72
5703;BME280;2876;51.738;10.050;2023-02-23T09:18:26;98983.38;;;9.89;98.87
5703;BME280;2876;51.738;10.050;2023-02-23T09:24:30;98989.81;;;9.95;98.54
5703;BME280;2876;51.738;10.050;2023-02-23T09:30:33;98990.81;;;9.94;98.62
5703;BME280;2876;51.738;10.050;2023-02-23T09:36:35;98995.56;;;9.92;98.69
5703;BME280;2876;51.738;10.050;2023-02-23T09:49:00;98994.94;;;10.03;98.82
5703;BME280;2876;51.738;10.050;2023-02-23T09:55:04;98990.63;;;10.15;98.94
5703;BME280;2876;51.738;10.050;2023-02-23T10:01:40;98999.31;;;10.31;98.98
5703;BME280;2876;51.738;10.050;2023-02-23T10:07:53;98999.31;;;10.44;98.24
5703;BME280;2876;51.738;10.050;2023-02-23T10:21:04;98999.34;;;10.37;97.47
5703;BME280;2876;51.738;10.050;2023-02-23T10:27:35;99008.63;;;10.41;97.88
5703;BME280;2876;51.738;10.050;2023-02-23T10:33:41;99009.22;;;10.44;97.41
5703;BME280;2876;51.738;10.050;2023-02-23T10:39:43;99005.75;;;10.36;98.36
5703;BME280;2876;51.738;10.050;2023-02-23T10:45:51;99010.91;;;10.45;98.45
5703;BME280;2876;51.738;10.050;2023-02-23T10:51:53;99001.41;;;10.55;98.55
5703;BME280;2876;51.738;10.050;2023-02-23T10:58:08;99013.34;;;10.66;98.33
5703;BME280;2876;51.738;10.050;2023-02-23T11:04:23;99007.97;;;10.79;97.95
5703;BME280;2876;51.738;10.050;2023-02-23T11:10:27;99002.22;;;10.69;98.56
5703;BME280;2876;51.738;10.050;2023-02-23T11:16:37;98997.44;;;10.84;98.63
5703;BME280;2876;51.738;10.050;2023-02-23T11:22:40;98985.63;;;10.99;98.60
5703;BME280;2876;51.738;10.050;2023-02-23T11:28:43;98975.66;;;11.19;98.17
5703;BME280;2876;51.738;10.050;2023-02-23T11:34:47;98971.88;;;11.33;96.54
5703;BME280;2876;51.738;10.050;2023-02-23T11:41:16;98972.13;;;11.32;95.51
5703;BME280;2876;51.738;10.050;2023-02-23T11:47:21;98971.72;;;11.22;96.55
5703;BME280;2876;51.738;10.050;2023-02-23T11:53:44;98960.88;;;11.48;96.39
5703;BME280;2876;51.738;10.050;2023-02-23T11:59:47;98958.00;;;11.50;95.88
5703;BME280;2876;51.738;10.050;2023-02-23T12:05:54;98961.50;;;11.82;95.18
5703;BME280;2876;51.738;10.050;2023-02-23T12:12:10;98962.47;;;11.94;95.03
5703;BME280;2876;51.738;10.050;2023-02-23T12:25:00;98943.06;;;11.92;93.04
5703;BME280;2876;51.738;10.050;2023-02-23T12:31:25;98934.22;;;11.85;92.81
5703;BME280;2876;51.738;10.050;2023-02-23T12:37:40;98947.59;;;11.60;92.83
5703;BME280;2876;51.738;10.050;2023-02-23T12:43:54;98939.13;;;11.56;92.76
5703;BME280;2876;51.738;10.050;2023-02-23T12:50:10;98942.28;;;11.08;94.99
5703;BME280;2876;51.738;10.050;2023-02-23T13:29:38;98932.25;;;10.77;99.18
5703;BME280;2876;51.738;10.050;2023-02-23T13:35:41;98934.28;;;10.88;99.48
5703;BME280;2876;51.738;10.050;2023-02-23T13:48:50;98934.91;;;10.84;99.17
5703;BME280;2876;51.738;10.050;2023-02-23T13:55:00;98930.59;;;10.76;100.00
5703;BME280;2876;51.738;10.050;2023-02-23T14:01:10;98927.97;;;10.56;100.00
5703;BME280;2876;51.738;10.050;2023-02-23T14:07:28;98925.69;;;10.53;100.00
5703;BME280;2876;51.738;10.050;2023-02-23T14:13:38;98922.97;;;10.66;100.00
5703;BME280;2876;51.738;10.050;2023-02-23T14:20:13;98918.28;;;10.49;100.00
5703;BME280;2876;51.738;10.050;2023-02-23T14:32:38;98930.06;;;10.34;100.00
5703;BME280;2876;51.738;10.050;2023-02-23T14:38:40;98929.44;;;10.32;100.00
5703;BME280;2876;51.738;10.050;2023-02-23T14:44:49;98930.06;;;10.28;100.00
5703;BME280;2876;51.738;10.050;2023-02-23T14:51:35;98929.19;;;9.94;100.00
5703;BME280;2876;51.738;10.050;2023-02-23T14:57:43;98925.50;;;9.95;100.00
5703;BME280;2876;51.738;10.050;2023-02-23T15:04:15;98935.16;;;9.89;100.00
5703;BME280;2876;51.738;10.050;2023-02-23T15:10:28;98929.44;;;9.86;100.00
5703;BME280;2876;51.738;10.050;2023-02-23T15:16:33;98936.59;;;9.85;100.00
5703;BME280;2876;51.738;10.050;2023-02-23T15:22:38;98938.25;;;9.80;100.00
5703;BME280;2876;51.738;10.050;2023-02-23T15:28:42;98937.00;;;9.76;100.00
5703;BME280;2876;51.738;10.050;2023-02-23T15:34:46;98935.38;;;9.75;100.00
5703;BME280;2876;51.738;10.050;2023-02-23T15:40:53;98940.31;;;9.71;100.00
5703;BME280;2876;51.738;10.050;2023-02-23T15:46:58;98938.66;;;9.63;100.00
5703;BME280;2876;51.738;10.050;2023-02-23T15:53:23;98942.59;;;9.74;100.00
5703;BME280;2876;51.738;10.050;2023-02-23T15:59:34;98939.66;;;9.62;100.00
5703;BME280;2876;51.738;10.050;2023-02-23T16:05:36;98942.19;;;9.84;100.00
5703;BME280;2876;51.738;10.050;2023-02-23T16:12:15;98936.38;;;9.60;100.00
5703;BME280;2876;51.738;10.050;2023-02-23T16:18:26;98942.94;;;9.58;100.00
5703;BME280;2876;51.738;10.050;2023-02-23T16:24:35;98946.63;;;9.44;100.00
5703;BME280;2876;51.738;10.050;2023-02-23T16:30:41;98946.41;;;9.38;100.00
5703;BME280;2876;51.738;10.050;2023-02-23T16:36:49;98949.09;;;9.38;100.00
5703;BME280;2876;51.738;10.050;2023-02-23T16:42:53;98953.88;;;9.50;100.00
5703;BME280;2876;51.738;10.050;2023-02-23T16:49:00;98947.06;;;9.40;100.00
5703;BME280;2876;51.738;10.050;2023-02-23T16:55:13;98945.91;;;9.08;100.00
5703;BME280;2876;51.738;10.050;2023-02-23T17:01:19;98947.06;;;8.99;100.00
5703;BME280;2876;51.738;10.050;2023-02-23T17:07:21;98951.00;;;8.97;100.00
5703;BME280;2876;51.738;10.050;2023-02-23T17:13:27;98958.03;;;9.04;100.00
5703;BME280;2876;51.738;10.050;2023-02-23T17:19:30;98955.53;;;9.03;100.00
5703;BME280;2876;51.738;10.050;2023-02-23T17:25:32;98959.69;;;9.12;100.00
5703;BME280;2876;51.738;10.050;2023-02-23T17:31:34;98962.59;;;9.17;100.00
5703;BME280;2876;51.738;10.050;2023-02-23T17:37:37;98965.09;;;9.19;100.00
5703;BME280;2876;51.738;10.050;2023-02-23T17:43:39;98964.44;;;9.17;100.00
5703;BME280;2876;51.738;10.050;2023-02-23T17:49:41;98971.03;;;9.21;100.00
5703;BME280;2876;51.738;10.050;2023-02-23T17:55:43;98963.41;;;9.11;100.00
5703;BME280;2876;51.738;10.050;2023-02-23T18:01:47;98975.13;;;9.10;100.00
5703;BME280;2876;51.738;10.050;2023-02-23T18:07:51;98967.25;;;9.02;100.00
5703;BME280;2876;51.738;10.050;2023-02-23T18:13:53;98965.41;;;9.02;100.00
5703;BME280;2876;51.738;10.050;2023-02-23T18:19:55;98975.28;;;9.02;100.00
5703;BME280;2876;51.738;10.050;2023-02-23T18:26:10;98968.06;;;8.96;100.00
5703;BME280;2876;51.738;10.050;2023-02-23T18:32:12;98974.84;;;8.98;100.00
5703;BME280;2876;51.738;10.050;2023-02-23T18:38:15;98962.41;;;9.19;100.00
5703;BME280;2876;51.738;10.050;2023-02-23T18:44:17;98978.31;;;8.92;100.00
5703;BME280;2876;51.738;10.050;2023-02-23T18:50:19;98975.06;;;9.03;100.00
5703;BME280;2876;51.738;10.050;2023-02-23T18:56:24;98970.81;;;8.74;100.00
5703;BME280;2876;51.738;10.050;2023-02-23T19:02:28;98977.69;;;8.55;100.00
5703;BME280;2876;51.738;10.050;2023-02-23T19:08:30;98973.53;;;8.46;100.00
5703;BME280;2876;51.738;10.050;2023-02-23T19:14:32;98975.59;;;8.51;100.00
5703;BME280;2876;51.738;10.050;2023-02-23T19:20:50;98977.69;;;8.55;100.00
5703;BME280;2876;51.738;10.050;2023-02-23T19:26:53;98981.88;;;8.64;100.00
5703;BME280;2876;51.738;10.050;2023-02-23T19:32:54;98980.72;;;8.46;100.00
5703;BME280;2876;51.738;10.050;2023-02-23T19:39:01;98977.16;;;8.38;100.00
5703;BME280;2876;51.738;10.050;2023-02-23T19:45:15;98979.22;;;8.36;100.00
5703;BME280;2876;51.738;10.050;2023-02-23T19:51:17;98978.09;;;8.31;100.00
5703;BME280;2876;51.738;10.050;2023-02-23T19:57:19;98988.53;;;8.26;100.00
5703;BME280;2876;51.738;10.050;2023-02-23T20:03:24;98993.28;;;8.30;100.00
5703;BME280;2876;51.738;10.050;2023-02-23T20:09:29;98985.56;;;7.93;100.00
5703;BME280;2876;51.738;10.050;2023-02-23T20:15:30;98982.66;;;8.09;100.00
5703;BME280;2876;51.738;10.050;2023-02-23T20:21:33;98986.72;;;8.05;100.00
5703;BME280;2876;51.738;10.050;2023-02-23T20:27:35;98986.75;;;8.11;100.00
5703;BME280;2876;51.738;10.050;2023-02-23T20:33:37;98990.09;;;8.13;100.00
5703;BME280;2876;51.738;10.050;2023-02-23T20:39:39;98986.06;;;8.03;100.00
5703;BME280;2876;51.738;10.050;2023-02-23T20:45:41;98983.16;;;7.98;100.00
5703;BME280;2876;51.738;10.050;2023-02-23T20:51:46;98985.13;;;7.68;100.00
5703;BME280;2876;51.738;10.050;2023-02-23T20:57:49;98983.22;;;7.83;100.00
5703;BME280;2876;51.738;10.050;2023-02-23T21:03:54;98984.47;;;7.66;100.00
5703;BME280;2876;51.738;10.050;2023-02-23T21:09:56;98987.84;;;7.74;100.00
5703;BME280;2876;51.738;10.050;2023-02-23T21:16:01;98979.09;;;7.59;100.00
5703;BME280;2876;51.738;10.050;2023-02-23T21:22:04;98982.00;;;7.64;100.00
5703;BME280;2876;51.738;10.050;2023-02-23T21:28:05;98974.00;;;7.64;100.00
5703;BME280;2876;51.738;10.050;2023-02-23T21:34:08;98970.25;;;7.80;100.00
5703;BME280;2876;51.738;10.050;2023-02-23T21:40:15;98967.69;;;7.50;100.00
5703;BME280;2876;51.738;10.050;2023-02-23T21:46:24;98963.63;;;7.54;100.00
5703;BME280;2876;51.738;10.050;2023-02-23T21:52:26;98960.00;;;7.62;100.00
5703;BME280;2876;51.738;10.050;2023-02-23T21:58:28;98959.38;;;7.60;100.00
5703;BME280;2876;51.738;10.050;2023-02-23T22:04:29;98960.22;;;7.82;100.00
5703;BME280;2876;51.738;10.050;2023-02-23T22:10:31;98954.03;;;7.60;100.00
5703;BME280;2876;51.738;10.050;2023-02-23T22:16:37;98947.94;;;7.66;100.00
5703;BME280;2876;51.738;10.050;2023-02-23T22:22:39;98944.94;;;7.76;100.00
5703;BME280;2876;51.738;10.050;2023-02-23T22:28:43;98950.84;;;7.71;100.00
5703;BME280;2876;51.738;10.050;2023-02-23T22:34:45;98961.75;;;7.33;100.00
5703;BME280;2876;51.738;10.050;2023-02-23T22:40:47;98960.44;;;6.93;100.00
5703;BME280;2876;51.738;10.050;2023-02-23T22:46:49;98958.97;;;6.61;100.00
5703;BME280;2876;51.738;10.050;2023-02-23T22:52:52;98970.25;;;6.33;100.00
5703;BME280;2876;51.738;10.050;2023-02-23T22:58:54;98966.91;;;6.17;99.70
5703;BME280;2876;51.738;10.050;2023-02-23T23:04:58;98961.97;;;5.91;99.81
5703;BME280;2876;51.738;10.050;2023-02-23T23:11:03;98963.72;;;5.75;99.74
5703;BME280;2876;51.738;10.050;2023-02-23T23:17:10;98969.50;;;5.56;100.00
5703;BME280;2876;51.738;10.050;2023-02-23T23:23:12;98971.97;;;5.57;100.00
5703;BME280;2876;51.738;10.050;2023-02-23T23:29:14;98961.78;;;5.46;100.00
5703;BME280;2876;51.738;10.050;2023-02-23T23:35:16;98961.88;;;5.53;100.00
5703;BME280;2876;51.738;10.050;2023-02-23T23:41:24;98962.94;;;5.44;100.00
5703;BME280;2876;51.738;10.050;2023-02-23T23:47:27;98950.56;;;5.59;100.00
5703;BME280;2876;51.738;10.050;2023-02-23T23:53:32;98945.44;;;5.49;100.00
5703;BME280;2876;51.738;10.050;2023-02-23T23:59:34;98938.50;;;5.40;100.00
